Time;durP1;ratioP1;P1;durP2;ratioP2;P2;SDS_P1;SDS_P2;PMS_P1;PMS_P2;Temp;Humidity;BMP_temperature;BMP_pressure;BME280_temperature;BME280_humidity;BME280_pressure;Samples;Min_cycle;Max_cycle;Signal;HPM_P1;HPM_P2
2021/06/12 00:01:32;;;;;;;4.38;2.97;;;15.60;99.90;;;;;;5093485;28;20036;-87
2021/06/12 00:03:58;;;;;;;7.28;3.33;;;15.50;99.90;;;;;;5094844;28;20035;-89
2021/06/12 00:06:23;;;;;;;4.85;3.00;;;15.50;99.90;;;;;;5093424;28;20135;-91
2021/06/12 00:08:49;;;;;;;3.00;2.70;;;15.50;99.90;;;;;;5093464;28;20078;-87
2021/06/12 00:11:14;;;;;;;3.00;2.75;;;15.50;99.90;;;;;;5093535;28;20028;-88
2021/06/12 00:13:40;;;;;;;2.90;2.65;;;15.50;99.90;;;;;;5093508;28;20035;-88
2021/06/12 00:16:06;;;;;;;6.32;2.67;;;15.40;99.90;;;;;;5093472;28;20123;-91
2021/06/12 00:18:32;;;;;;;3.08;2.30;;;15.40;99.90;;;;;;5096145;28;20024;-88
2021/06/12 00:20:58;;;;;;;2.80;2.47;;;15.40;99.90;;;;;;5097493;28;20024;-89
2021/06/12 00:23:25;;;;;;;3.40;2.50;;;15.40;99.90;;;;;;5097872;28;20016;-89
2021/06/12 00:25:51;;;;;;;3.88;2.60;;;15.40;99.90;;;;;;5097729;28;20027;-87
2021/06/12 00:28:16;;;;;;;2.75;2.50;;;15.40;99.90;;;;;;5097412;28;20020;-90
2021/06/12 00:30:42;;;;;;;3.45;2.00;;;15.40;99.90;;;;;;5097276;28;20043;-89
2021/06/12 00:33:08;;;;;;;3.92;2.28;;;15.30;99.90;;;;;;5097319;28;20024;-88
2021/06/12 00:35:34;;;;;;;2.55;2.22;;;15.30;99.90;;;;;;5097090;28;20364;-86
2021/06/12 00:37:59;;;;;;;5.38;2.55;;;15.30;99.90;;;;;;5097022;28;20177;-87
2021/06/12 00:40:25;;;;;;;4.63;3.03;;;15.20;99.90;;;;;;5096846;28;20028;-87
2021/06/12 00:42:52;;;;;;;4.57;2.58;;;15.20;99.90;;;;;;5097153;28;20027;-86
2021/06/12 00:45:20;;;;;;;5.50;2.85;;;15.20;99.90;;;;;;5097329;28;20078;-89
2021/06/12 00:47:48;;;;;;;5.30;2.90;;;15.30;99.90;;;;;;5098364;28;20027;-87
2021/06/12 00:50:14;;;;;;;4.15;2.63;;;15.30;99.90;;;;;;5096802;28;20040;-87
2021/06/12 00:52:40;;;;;;;5.75;3.00;;;15.30;99.90;;;;;;5096885;28;20107;-89
2021/06/12 00:55:08;;;;;;;6.43;3.10;;;15.20;99.90;;;;;;5096950;28;20047;-88
2021/06/12 00:57:36;;;;;;;5.75;3.42;;;15.20;99.90;;;;;;5097083;28;20046;-90
2021/06/12 01:00:03;;;;;;;3.65;3.35;;;15.20;99.90;;;;;;5096706;28;20028;-88
2021/06/12 01:02:29;;;;;;;7.13;3.30;;;15.20;99.90;;;;;;5097259;28;20024;-86
2021/06/12 01:04:55;;;;;;;3.38;2.85;;;15.10;99.90;;;;;;5096849;28;20027;-89
2021/06/12 01:07:20;;;;;;;4.57;2.67;;;15.10;99.90;;;;;;5096716;28;20101;-89
2021/06/12 01:09:46;;;;;;;3.17;2.58;;;15.10;99.90;;;;;;5096389;28;20459;-90
2021/06/12 01:12:23;;;;;;;3.70;2.88;;;15.10;99.90;;;;;;5096730;28;20028;-87
2021/06/12 01:14:53;;;;;;;2.55;2.03;;;15.10;99.90;;;;;;5096697;28;20161;-90
2021/06/12 01:17:47;;;;;;;3.92;2.30;;;15.10;99.90;;;;;;5096936;28;20039;-89
2021/06/12 01:20:26;;;;;;;3.70;2.78;;;15.10;99.90;;;;;;5096883;28;20072;-88
2021/06/12 01:23:11;;;;;;;4.50;2.90;;;15.10;99.90;;;;;;5096645;28;20020;-88
2021/06/12 01:25:57;;;;;;;5.00;2.90;;;15.10;99.90;;;;;;5096785;28;20031;-88
2021/06/12 01:28:50;;;;;;;3.30;2.47;;;15.10;99.90;;;;;;5096098;28;20032;-88
2021/06/12 01:31:20;;;;;;;3.80;2.70;;;15.20;99.90;;;;;;5096280;28;20035;-88
2021/06/12 01:33:47;;;;;;;4.30;2.83;;;15.20;99.90;;;;;;5096329;28;20027;-88
2021/06/12 01:36:14;;;;;;;2.72;2.47;;;15.20;99.90;;;;;;5096199;28;20073;-85
2021/06/12 01:38:44;;;;;;;3.70;2.85;;;15.20;99.90;;;;;;5096280;28;20523;-89
2021/06/12 01:41:14;;;;;;;3.03;2.45;;;15.20;99.90;;;;;;5095986;28;20027;-87
2021/06/12 01:43:42;;;;;;;3.42;2.70;;;15.20;99.90;;;;;;5096326;28;20367;-89
2021/06/12 01:46:11;;;;;;;3.47;2.60;;;15.20;99.90;;;;;;5096111;28;20505;-87
2021/06/12 01:48:42;;;;;;;4.65;2.60;;;15.20;99.90;;;;;;5096436;28;20032;-86
2021/06/12 01:51:09;;;;;;;3.58;2.75;;;15.20;99.90;;;;;;5095657;28;20036;-92
2021/06/12 01:53:36;;;;;;;2.85;2.30;;;15.30;99.90;;;;;;5096189;28;20081;-89
2021/06/12 01:56:05;;;;;;;3.17;2.60;;;15.30;99.90;;;;;;5095965;28;20055;-87
2021/06/12 01:58:33;;;;;;;3.95;2.70;;;15.30;99.90;;;;;;5095638;28;20035;-89
2021/06/12 02:01:01;;;;;;;3.17;2.53;;;15.20;99.90;;;;;;5095644;28;20048;-91
2021/06/12 02:03:28;;;;;;;3.20;2.50;;;15.20;99.90;;;;;;5095646;28;20069;-89
2021/06/12 02:05:54;;;;;;;2.75;2.50;;;15.20;99.90;;;;;;5096687;28;20082;-86
2021/06/12 02:08:21;;;;;;;6.00;3.00;;;15.30;99.90;;;;;;5095713;28;20085;-90
2021/06/12 02:10:48;;;;;;;5.38;3.40;;;15.30;99.90;;;;;;5096185;28;20040;-87
2021/06/12 02:13:21;;;;;;;5.85;3.40;;;15.20;99.90;;;;;;5095345;28;20415;-87
2021/06/12 02:15:52;;;;;;;6.13;3.35;;;15.30;99.90;;;;;;5095304;28;20630;-87
2021/06/12 02:18:19;;;;;;;5.95;3.65;;;15.30;99.90;;;;;;5095438;28;20042;-89
2021/06/12 02:20:45;;;;;;;6.35;3.72;;;15.30;99.90;;;;;;5095493;28;20467;-88
2021/06/12 02:23:11;;;;;;;5.97;3.70;;;15.30;99.90;;;;;;5095294;28;20061;-89
2021/06/12 02:25:37;;;;;;;5.10;3.80;;;15.20;99.90;;;;;;5095128;28;20383;-90
2021/06/12 02:28:07;;;;;;;5.82;3.80;;;15.20;99.90;;;;;;5095187;28;20088;-90
2021/06/12 02:30:38;;;;;;;4.60;4.05;;;15.20;99.90;;;;;;5095025;28;20032;-88
2021/06/12 02:33:08;;;;;;;4.07;3.63;;;15.10;99.90;;;;;;5095130;28;20058;-91
2021/06/12 02:35:34;;;;;;;6.40;3.83;;;15.10;99.90;;;;;;5095349;28;20055;-88
2021/06/12 02:38:00;;;;;;;3.83;3.45;;;15.10;99.90;;;;;;5095256;28;20020;-88
2021/06/12 02:40:26;;;;;;;6.82;3.45;;;15.10;99.90;;;;;;5094083;28;20127;-88
2021/06/12 02:42:52;;;;;;;3.63;3.13;;;15.00;99.90;;;;;;5095236;28;20097;-87
2021/06/12 02:45:18;;;;;;;3.38;3.08;;;14.90;99.90;;;;;;5095098;28;20478;-88
2021/06/12 02:48:03;;;;;;;4.68;2.90;;;14.80;99.90;;;;;;5094828;28;20023;-89
2021/06/12 02:50:34;;;;;;;5.15;3.10;;;14.80;99.90;;;;;;5094924;28;20036;-91
2021/06/12 02:53:05;;;;;;;3.53;3.13;;;14.70;99.90;;;;;;5095214;28;20025;-88
2021/06/12 02:55:35;;;;;;;3.78;3.17;;;14.70;99.90;;;;;;5094964;28;20028;-87
2021/06/12 02:58:02;;;;;;;3.10;2.80;;;14.70;99.90;;;;;;5094714;28;20024;-87
2021/06/12 03:00:29;;;;;;;7.93;4.20;;;14.50;99.90;;;;;;5095779;28;20020;-86
2021/06/12 03:02:55;;;;;;;3.65;3.30;;;14.50;99.90;;;;;;5094683;28;20124;-88
2021/06/12 03:05:27;;;;;;;4.45;3.63;;;14.50;99.90;;;;;;5094407;28;20044;-87
2021/06/12 03:07:56;;;;;;;4.55;4.10;;;14.50;99.90;;;;;;5094636;28;20088;-87
2021/06/12 03:10:28;;;;;;;10.88;5.05;;;14.60;99.90;;;;;;5094610;28;20036;-90
2021/06/12 03:12:58;;;;;;;7.85;4.00;;;14.50;99.90;;;;;;5094357;28;20022;-90
2021/06/12 03:15:26;;;;;;;5.97;4.35;;;14.50;99.90;;;;;;5094515;28;20024;-88
2021/06/12 03:17:53;;;;;;;6.55;4.22;;;14.50;99.90;;;;;;5094388;28;20356;-88
2021/06/12 03:20:20;;;;;;;4.57;4.18;;;14.50;99.90;;;;;;5094314;28;20028;-88
2021/06/12 03:22:49;;;;;;;5.35;3.95;;;14.50;99.90;;;;;;5094416;28;20020;-87
2021/06/12 03:25:18;;;;;;;4.53;4.00;;;14.50;99.90;;;;;;5094144;28;20032;-88
2021/06/12 03:27:45;;;;;;;3.97;3.65;;;14.50;99.90;;;;;;5094171;28;20099;-88
2021/06/12 03:30:12;;;;;;;4.40;4.00;;;14.50;99.90;;;;;;5094302;28;20138;-87
2021/06/12 03:32:38;;;;;;;4.78;3.42;;;14.50;99.90;;;;;;5077659;28;20181;-88
2021/06/12 03:35:05;;;;;;;4.97;3.90;;;14.60;99.90;;;;;;5094229;28;20028;-89
2021/06/12 03:37:31;;;;;;;4.20;3.42;;;14.60;99.90;;;;;;5094748;28;20077;-88
2021/06/12 03:39:57;;;;;;;4.30;3.50;;;14.60;99.90;;;;;;5093939;28;20382;-90
2021/06/12 03:42:24;;;;;;;4.80;3.63;;;14.60;99.90;;;;;;5094208;28;20055;-89
2021/06/12 03:44:51;;;;;;;3.90;3.30;;;14.50;99.90;;;;;;5094181;28;20024;-87
2021/06/12 03:47:17;;;;;;;7.30;4.20;;;14.60;99.90;;;;;;5093699;28;20020;-86
2021/06/12 03:49:43;;;;;;;7.07;5.57;;;14.70;99.90;;;;;;5094019;28;20020;-89
2021/06/12 03:52:09;;;;;;;7.75;5.65;;;14.80;99.90;;;;;;5093724;28;20524;-85
2021/06/12 03:54:40;;;;;;;6.50;4.20;;;14.80;99.90;;;;;;5094033;28;20045;-88
2021/06/12 03:57:07;;;;;;;4.28;3.67;;;14.90;99.90;;;;;;5094150;28;20115;-89
2021/06/12 03:59:33;;;;;;;4.30;3.70;;;15.00;99.90;;;;;;5093759;28;20027;-88
2021/06/12 04:02:00;;;;;;;5.72;4.28;;;15.00;99.90;;;;;;5093586;28;20024;-90
2021/06/12 04:04:26;;;;;;;7.85;5.20;;;15.10;99.90;;;;;;5093466;28;20020;-89
2021/06/12 04:06:53;;;;;;;6.28;4.85;;;15.20;99.90;;;;;;5093405;28;20080;-86
2021/06/12 04:09:19;;;;;;;11.43;6.35;;;15.30;99.90;;;;;;5093467;28;20024;-88
2021/06/12 04:11:44;;;;;;;7.30;4.93;;;15.40;99.90;;;;;;5093536;28;20032;-86
2021/06/12 04:14:10;;;;;;;7.43;4.22;;;15.50;99.90;;;;;;5093903;28;20024;-88
2021/06/12 04:16:37;;;;;;;6.80;3.90;;;15.60;99.90;;;;;;5093790;28;20119;-90
2021/06/12 04:19:04;;;;;;;6.47;4.38;;;15.60;99.90;;;;;;5093870;28;20047;-89
2021/06/12 04:21:30;;;;;;;4.50;4.10;;;15.70;99.90;;;;;;5093660;28;20024;-88
2021/06/12 04:23:55;;;;;;;4.95;4.50;;;15.70;99.90;;;;;;5093436;28;20433;-84
2021/06/12 04:26:21;;;;;;;5.95;3.88;;;15.70;99.90;;;;;;5095163;28;20050;-82
2021/06/12 04:28:47;;;;;;;5.35;3.45;;;15.90;99.90;;;;;;5092573;28;20008;-83
2021/06/12 04:31:12;;;;;;;5.85;2.83;;;17.80;99.90;;;;;;5093337;28;20032;-82
2021/06/12 04:33:38;;;;;;;4.38;3.28;;;19.20;99.90;;;;;;5093589;28;20455;-84
2021/06/12 04:36:04;;;;;;;3.60;3.30;;;19.80;99.90;;;;;;5092508;28;20028;-83
2021/06/12 04:38:30;;;;;;;3.70;2.90;;;20.00;99.90;;;;;;5093338;28;20055;-83
2021/06/12 04:40:56;;;;;;;4.75;3.53;;;20.40;99.90;;;;;;5092756;28;20496;-82
2021/06/12 04:43:22;;;;;;;6.25;3.03;;;20.10;99.90;;;;;;5093072;28;20028;-82
2021/06/12 04:45:47;;;;;;;5.30;3.40;;;20.30;99.90;;;;;;5094179;28;20158;-83
2021/06/12 04:48:13;;;;;;;4.10;3.70;;;20.00;99.90;;;;;;5093472;28;20079;-82
2021/06/12 04:50:39;;;;;;;6.95;4.32;;;19.50;99.90;;;;;;5093258;28;20043;-84
2021/06/12 04:53:08;;;;;;;4.13;3.35;;;19.40;99.90;;;;;;5093078;28;20107;-85
2021/06/12 04:55:34;;;;;;;4.90;3.30;;;19.30;99.90;;;;;;5093675;28;20031;-81
2021/06/12 04:58:01;;;;;;;3.47;3.17;;;19.40;99.90;;;;;;5091537;28;20019;-82
2021/06/12 05:00:26;;;;;;;4.50;3.63;;;19.40;99.90;;;;;;5091160;28;20028;-82
2021/06/12 05:02:52;;;;;;;5.05;3.97;;;19.40;99.90;;;;;;5091229;28;20081;-81
2021/06/12 05:05:17;;;;;;;6.15;4.40;;;19.50;99.90;;;;;;5094546;28;20020;-80
2021/06/12 05:07:43;;;;;;;9.70;4.20;;;19.30;99.90;;;;;;5096113;28;20436;-80
2021/06/12 05:10:10;;;;;;;6.97;3.70;;;19.20;99.90;;;;;;5094883;28;20032;-81
2021/06/12 05:12:37;;;;;;;9.50;4.40;;;19.10;99.90;;;;;;5094471;28;20462;-78
2021/06/12 05:15:05;;;;;;;4.65;3.97;;;19.20;99.90;;;;;;5094627;28;20058;-81
2021/06/12 05:17:31;;;;;;;4.75;4.00;;;19.70;99.90;;;;;;5094218;28;20028;-81
2021/06/12 05:19:56;;;;;;;6.50;3.20;;;20.20;99.90;;;;;;5095586;28;20027;-81
2021/06/12 05:22:23;;;;;;;5.43;3.75;;;20.40;99.90;;;;;;5096183;28;20035;-81
2021/06/12 05:24:49;;;;;;;4.20;3.78;;;20.70;99.90;;;;;;5095863;28;20121;-80
2021/06/12 05:27:15;;;;;;;7.80;3.92;;;20.90;99.40;;;;;;5095674;28;20051;-80
2021/06/12 05:29:40;;;;;;;7.78;4.07;;;20.60;99.90;;;;;;5096902;28;20382;-83
2021/06/12 05:32:06;;;;;;;9.63;4.53;;;20.50;99.90;;;;;;5096151;28;20116;-85
2021/06/12 05:34:32;;;;;;;3.63;3.28;;;20.50;99.90;;;;;;5095971;28;20085;-87
2021/06/12 05:37:01;;;;;;;5.70;3.55;;;20.70;99.90;;;;;;5096897;28;20455;-86
2021/06/12 05:39:27;;;;;;;3.88;3.47;;;20.90;99.90;;;;;;5095592;28;20081;-86
2021/06/12 05:41:52;;;;;;;5.40;4.38;;;21.00;99.80;;;;;;5095564;28;20859;-86
2021/06/12 05:44:18;;;;;;;4.90;3.42;;;20.80;99.90;;;;;;5095746;28;20028;-81
2021/06/12 05:46:44;;;;;;;4.93;3.42;;;21.10;99.50;;;;;;5095552;28;20024;-83
2021/06/12 05:49:10;;;;;;;6.13;3.80;;;21.40;99.20;;;;;;5094966;28;20119;-82
2021/06/12 05:51:35;;;;;;;5.90;3.88;;;21.60;99.00;;;;;;5095334;28;20036;-86
2021/06/12 05:54:01;;;;;;;4.40;3.30;;;21.80;98.50;;;;;;5095501;28;20028;-87
2021/06/12 05:56:26;;;;;;;4.85;3.72;;;21.70;98.60;;;;;;5095436;28;20026;-81
2021/06/12 05:58:52;;;;;;;4.10;3.45;;;21.70;98.50;;;;;;5095394;28;20577;-84
2021/06/12 06:01:18;;;;;;;4.57;3.58;;;21.60;98.30;;;;;;5095670;28;20466;-86
2021/06/12 06:03:43;;;;;;;4.78;4.15;;;21.50;98.40;;;;;;5094884;28;20024;-88
2021/06/12 06:06:09;;;;;;;4.60;3.50;;;21.50;99.20;;;;;;5095061;28;20486;-85
2021/06/12 06:08:36;;;;;;;3.97;3.58;;;21.60;98.30;;;;;;5096311;28;20083;-88
2021/06/12 06:11:04;;;;;;;5.65;3.03;;;21.70;98.30;;;;;;5096190;28;20043;-84
2021/06/12 06:13:38;;;;;;;5.60;3.65;;;22.00;97.60;;;;;;5094792;28;20024;-82
2021/06/12 06:16:04;;;;;;;3.80;3.30;;;22.10;97.50;;;;;;5094809;28;20110;-81
2021/06/12 06:18:30;;;;;;;5.00;4.00;;;22.40;96.90;;;;;;5094490;28;20020;-80
2021/06/12 06:20:56;;;;;;;4.28;3.55;;;22.70;96.10;;;;;;5094542;28;20042;-83
2021/06/12 06:23:22;;;;;;;4.38;3.40;;;22.80;96.40;;;;;;5094829;28;20074;-82
2021/06/12 06:25:47;;;;;;;5.00;3.47;;;22.90;96.00;;;;;;5094461;28;20028;-83
2021/06/12 06:28:13;;;;;;;7.55;6.85;;;23.10;96.40;;;;;;5094885;28;20058;-80
2021/06/12 06:30:39;;;;;;;11.35;5.85;;;23.10;95.20;;;;;;5096089;28;20538;-83
2021/06/12 06:33:05;;;;;;;5.15;4.55;;;23.30;94.60;;;;;;5096303;28;20095;-84
2021/06/12 06:35:31;;;;;;;5.30;4.78;;;23.40;93.50;;;;;;5095016;28;20097;-86
2021/06/12 06:37:56;;;;;;;5.00;3.60;;;23.30;94.10;;;;;;5094877;28;20378;-85
2021/06/12 06:40:22;;;;;;;8.88;3.67;;;23.50;94.30;;;;;;5094623;28;20035;-86
2021/06/12 06:42:48;;;;;;;6.75;3.40;;;23.60;94.50;;;;;;5094949;28;20024;-88
2021/06/12 06:45:14;;;;;;;11.43;3.60;;;23.80;93.80;;;;;;5094911;28;20051;-84
2021/06/12 06:47:39;;;;;;;10.00;3.38;;;24.00;93.40;;;;;;5094745;28;20028;-88
2021/06/12 06:50:06;;;;;;;8.07;3.30;;;24.10;93.10;;;;;;5094180;28;20028;-86
2021/06/12 06:52:32;;;;;;;6.60;3.20;;;24.30;93.80;;;;;;5094600;28;20028;-83
2021/06/12 06:54:58;;;;;;;3.65;3.25;;;24.50;93.00;;;;;;5095024;28;20599;-83
2021/06/12 06:57:23;;;;;;;4.25;2.88;;;24.60;92.20;;;;;;5094882;28;20020;-78
2021/06/12 06:59:49;;;;;;;4.65;2.70;;;24.70;91.80;;;;;;5094555;28;20458;-78
2021/06/12 07:02:15;;;;;;;3.35;2.25;;;24.80;90.50;;;;;;5094686;28;20027;-78
2021/06/12 07:04:40;;;;;;;3.85;2.58;;;24.80;88.60;;;;;;5094468;28;20035;-77
2021/06/12 07:07:06;;;;;;;3.50;2.70;;;24.80;90.20;;;;;;5094351;28;20047;-79
2021/06/12 07:09:32;;;;;;;6.88;2.90;;;25.00;89.70;;;;;;5094160;28;20111;-81
2021/06/12 07:12:00;;;;;;;3.08;2.60;;;25.20;90.40;;;;;;5094117;28;20040;-84
2021/06/12 07:14:26;;;;;;;4.25;2.20;;;25.50;88.00;;;;;;5078910;28;20040;-82
2021/06/12 07:16:52;;;;;;;2.53;2.00;;;25.50;84.60;;;;;;5095140;28;20030;-82
2021/06/12 07:19:20;;;;;;;4.43;2.40;;;25.80;86.70;;;;;;5094293;28;20032;-80
2021/06/12 07:21:46;;;;;;;4.05;2.25;;;25.70;85.40;;;;;;5094520;28;20444;-83
2021/06/12 07:24:12;;;;;;;2.33;1.60;;;25.80;82.30;;;;;;5095389;28;20035;-82
2021/06/12 07:26:39;;;;;;;1.98;1.80;;;25.80;79.30;;;;;;5093509;28;20024;-80
2021/06/12 07:29:04;;;;;;;3.05;2.00;;;25.70;76.30;;;;;;5094588;28;20028;-82
2021/06/12 07:31:30;;;;;;;2.22;2.00;;;25.60;80.30;;;;;;5095706;28;20039;-81
2021/06/12 07:33:56;;;;;;;3.95;2.08;;;25.60;81.30;;;;;;5094236;28;20027;-82
2021/06/12 07:36:23;;;;;;;2.80;1.80;;;25.70;81.60;;;;;;5099997;28;20024;-85
2021/06/12 07:38:49;;;;;;;2.05;1.88;;;25.70;77.20;;;;;;5094158;28;20024;-82
2021/06/12 07:41:16;;;;;;;2.17;1.92;;;25.80;74.30;;;;;;5093828;28;20391;-81
2021/06/12 07:43:41;;;;;;;2.72;2.15;;;25.80;75.00;;;;;;5094383;28;20012;-83
2021/06/12 07:46:07;;;;;;;2.42;2.05;;;25.80;75.10;;;;;;5094246;28;20371;-84
2021/06/12 07:48:33;;;;;;;2.10;1.90;;;25.80;74.20;;;;;;5094887;28;20042;-83
2021/06/12 07:50:58;;;;;;;4.07;2.03;;;25.90;74.40;;;;;;5093771;28;20085;-82
2021/06/12 07:53:24;;;;;;;3.10;2.00;;;26.00;74.60;;;;;;5093393;28;20024;-82
2021/06/12 07:55:50;;;;;;;3.67;1.98;;;26.00;73.70;;;;;;5093699;28;20028;-80
2021/06/12 07:58:15;;;;;;;2.30;2.03;;;26.20;76.40;;;;;;5093862;28;20063;-80
2021/06/12 08:00:41;;;;;;;2.00;1.73;;;26.40;76.30;;;;;;5094225;28;20031;-81
2021/06/12 08:03:06;;;;;;;2.67;2.35;;;26.50;74.60;;;;;;5093447;28;20021;-82
2021/06/12 08:05:32;;;;;;;3.15;1.90;;;26.60;73.60;;;;;;5093825;28;20040;-80
2021/06/12 08:07:58;;;;;;;3.42;2.20;;;26.90;73.00;;;;;;5093319;28;20028;-79
2021/06/12 08:10:24;;;;;;;2.05;1.85;;;27.20;71.70;;;;;;5093164;28;20024;-80
2021/06/12 08:12:50;;;;;;;4.03;2.20;;;27.30;71.50;;;;;;5093555;28;20184;-80
2021/06/12 08:15:16;;;;;;;3.47;2.00;;;27.20;71.40;;;;;;5093187;28;20483;-78
2021/06/12 08:17:42;;;;;;;2.35;1.90;;;27.00;72.40;;;;;;5093127;28;20131;-81
2021/06/12 08:20:08;;;;;;;1.88;1.70;;;26.90;68.60;;;;;;5093255;28;20055;-81
2021/06/12 08:22:34;;;;;;;2.72;1.75;;;26.70;66.90;;;;;;5076726;28;20136;-80
2021/06/12 08:25:00;;;;;;;1.83;1.73;;;26.50;68.70;;;;;;5092890;28;20518;-78
2021/06/12 08:27:25;;;;;;;3.55;1.75;;;26.60;68.90;;;;;;5092683;28;20074;-78
2021/06/12 08:29:51;;;;;;;7.10;2.00;;;26.80;68.10;;;;;;5092265;28;20031;-78
2021/06/12 08:32:18;;;;;;;2.65;1.63;;;26.90;66.10;;;;;;5093687;28;20115;-77
2021/06/12 08:34:45;;;;;;;2.97;1.70;;;26.80;65.80;;;;;;5093138;28;20017;-81
2021/06/12 08:37:10;;;;;;;2.50;1.90;;;26.70;65.80;;;;;;5092269;28;20124;-78
2021/06/12 08:39:36;;;;;;;2.50;1.92;;;26.60;66.40;;;;;;5095132;28;20063;-79
2021/06/12 08:42:03;;;;;;;3.08;2.10;;;26.40;65.80;;;;;;5097522;28;20020;-77
2021/06/12 08:44:28;;;;;;;4.55;1.80;;;26.40;66.40;;;;;;5095431;28;20072;-78
2021/06/12 08:46:54;;;;;;;4.97;2.17;;;26.40;67.50;;;;;;5095249;28;20056;-79
2021/06/12 08:49:21;;;;;;;11.43;2.35;;;26.40;67.30;;;;;;5095407;28;20055;-78
2021/06/12 08:51:47;;;;;;;8.85;1.95;;;26.50;66.20;;;;;;5095262;28;20035;-79
2021/06/12 08:54:17;;;;;;;8.50;2.35;;;26.70;66.20;;;;;;5095349;28;20107;-79
2021/06/12 08:56:45;;;;;;;8.10;1.90;;;26.60;64.30;;;;;;5095394;28;20055;-80
2021/06/12 08:59:12;;;;;;;6.78;2.10;;;26.50;64.60;;;;;;5096639;28;20012;-78
2021/06/12 09:01:38;;;;;;;4.68;2.42;;;26.40;65.50;;;;;;5098355;28;20535;-79
2021/06/12 09:04:04;;;;;;;4.28;2.13;;;26.20;66.60;;;;;;5095791;28;20057;-78
2021/06/12 09:06:29;;;;;;;3.17;1.75;;;26.10;67.50;;;;;;5095297;28;20485;-81
2021/06/12 09:08:55;;;;;;;2.28;2.08;;;25.90;66.60;;;;;;5096873;28;20024;-82
2021/06/12 09:11:20;;;;;;;8.15;2.13;;;25.80;67.00;;;;;;5095329;28;20039;-80
2021/06/12 09:13:48;;;;;;;4.28;2.25;;;26.10;67.10;;;;;;5095407;28;20028;-79
2021/06/12 09:16:24;;;;;;;3.92;1.85;;;26.20;66.00;;;;;;5095612;28;20047;-81
2021/06/12 09:18:50;;;;;;;2.60;1.80;;;26.60;67.60;;;;;;5095508;28;20501;-79
2021/06/12 09:21:28;;;;;;;7.60;1.88;;;26.80;65.40;;;;;;5095277;28;20031;-79
2021/06/12 09:23:57;;;;;;;3.25;2.00;;;27.10;66.10;;;;;;5095650;28;20028;-82
2021/06/12 09:26:49;;;;;;;2.33;2.13;;;27.40;64.60;;;;;;5095169;28;20040;-80
2021/06/12 09:29:19;;;;;;;2.38;2.17;;;27.60;63.70;;;;;;5095375;28;20111;-78
2021/06/12 09:31:54;;;;;;;3.58;2.22;;;27.80;63.10;;;;;;5095456;28;20467;-83
2021/06/12 09:34:23;;;;;;;2.10;1.80;;;28.00;61.80;;;;;;5094493;28;20115;-77
2021/06/12 09:36:51;;;;;;;2.38;2.00;;;28.40;60.90;;;;;;5095115;28;20028;-76
2021/06/12 09:39:24;;;;;;;1.98;1.77;;;28.40;60.30;;;;;;5095360;28;20036;-78
2021/06/12 09:41:52;;;;;;;2.08;1.70;;;28.30;59.40;;;;;;5095150;28;20463;-77
2021/06/12 09:44:39;;;;;;;2.20;1.50;;;28.10;58.70;;;;;;5095363;28;20028;-78
2021/06/12 09:47:12;;;;;;;2.03;1.88;;;27.90;59.40;;;;;;5096224;28;20502;-78
2021/06/12 09:49:39;;;;;;;3.80;1.80;;;27.60;59.20;;;;;;5095736;28;20027;-77
2021/06/12 09:52:13;;;;;;;2.35;1.92;;;27.50;61.40;;;;;;5094461;28;20036;-77
2021/06/12 09:54:44;;;;;;;2.83;2.43;;;27.30;65.90;;;;;;5094756;28;20119;-79
2021/06/12 09:57:13;;;;;;;4.22;3.25;;;27.00;67.50;;;;;;5094457;28;20024;-81
2021/06/12 09:59:56;;;;;;;6.82;3.72;;;26.70;70.40;;;;;;5094623;28;20020;-80
2021/06/12 10:02:34;;;;;;;15.20;4.47;;;26.40;78.00;;;;;;5096168;28;20055;-80
2021/06/12 10:05:00;;;;;;;10.98;3.40;;;26.10;88.30;;;;;;5094125;28;20539;-81
2021/06/12 10:07:26;;;;;;;9.02;3.30;;;26.00;91.50;;;;;;5094494;28;20032;-80
2021/06/12 10:09:53;;;;;;;5.88;3.30;;;25.70;93.20;;;;;;5077760;28;20039;-80
2021/06/12 10:12:20;;;;;;;5.05;3.33;;;25.50;94.80;;;;;;5095188;28;20387;-80
2021/06/12 10:14:46;;;;;;;3.72;3.28;;;25.50;95.10;;;;;;5093936;28;20371;-80
2021/06/12 10:17:13;;;;;;;7.65;3.65;;;25.50;95.90;;;;;;5095311;28;20081;-79
2021/06/12 10:19:41;;;;;;;3.65;3.35;;;25.60;96.30;;;;;;5093978;28;20058;-77
2021/06/12 10:22:08;;;;;;;5.88;3.22;;;25.70;97.20;;;;;;5095392;28;20047;-76
2021/06/12 10:24:35;;;;;;;4.00;3.20;;;25.70;97.20;;;;;;5094649;28;20036;-77
2021/06/12 10:27:02;;;;;;;4.18;3.58;;;25.60;96.90;;;;;;5093640;28;20491;-79
2021/06/12 10:29:28;;;;;;;4.43;3.55;;;25.40;98.30;;;;;;5094991;28;20039;-77
2021/06/12 10:31:57;;;;;;;12.40;4.95;;;25.30;97.30;;;;;;5093228;28;20028;-78
2021/06/12 10:34:28;;;;;;;7.38;4.78;;;25.10;99.30;;;;;;5094925;28;20016;-77
2021/06/12 10:37:03;;;;;;;17.45;7.00;;;24.90;99.90;;;;;;5094100;28;20063;-79
2021/06/12 10:39:34;;;;;;;16.10;6.15;;;24.60;99.90;;;;;;5093941;28;20387;-78
2021/06/12 10:42:19;;;;;;;6.13;4.60;;;24.30;99.90;;;;;;5093931;28;20016;-81
2021/06/12 10:44:50;;;;;;;10.45;5.00;;;23.80;99.90;;;;;;5093119;28;20031;-81
2021/06/12 10:47:42;;;;;;;16.75;5.22;;;23.50;99.90;;;;;;5093427;28;20469;-78
2021/06/12 10:50:26;;;;;;;9.02;5.15;;;23.30;99.90;;;;;;5076541;28;20029;-77
2021/06/12 10:53:13;;;;;;;10.25;5.70;;;23.00;99.90;;;;;;5093491;28;20474;-76
2021/06/12 10:55:57;;;;;;;6.88;5.38;;;22.90;99.90;;;;;;5094822;28;20038;-77
2021/06/12 10:58:34;;;;;;;10.18;5.55;;;22.70;99.90;;;;;;5093328;28;20024;-76
2021/06/12 11:01:11;;;;;;;10.40;5.85;;;22.70;99.90;;;;;;5092160;28;20062;-78
2021/06/12 11:04:34;;;;;;;13.15;6.22;;;22.60;99.90;;;;;;5092608;28;20089;-78
2021/06/12 11:06:51;;;;;;;13.07;6.20;;;22.50;99.90;;;;;;5089460;28;20040;-79
2021/06/12 11:09:20;;;;;;;10.02;6.25;;;22.50;99.90;;;;;;5093769;28;20020;-79
2021/06/12 11:11:52;;;;;;;12.63;8.48;;;22.50;99.90;;;;;;5092373;28;20028;-79
2021/06/12 11:14:20;;;;;;;16.98;8.18;;;22.40;99.90;;;;;;5093964;28;20027;-79
2021/06/12 11:17:07;;;;;;;17.73;9.20;;;22.30;99.90;;;;;;5092172;28;20024;-79
2021/06/12 11:19:47;;;;;;;10.82;7.45;;;22.10;99.90;;;;;;5092303;28;20047;-78
2021/06/12 11:22:39;;;;;;;11.32;6.97;;;21.90;99.90;;;;;;5092179;28;20468;-80
2021/06/12 11:25:07;;;;;;;12.52;7.22;;;21.70;99.90;;;;;;5092064;28;20028;-79
2021/06/12 11:27:42;;;;;;;7.80;7.00;;;21.60;99.90;;;;;;5093587;28;20023;-80
2021/06/12 11:30:13;;;;;;;7.22;5.88;;;21.50;99.90;;;;;;5092115;28;20028;-79
2021/06/12 11:32:41;;;;;;;13.63;7.43;;;21.60;99.90;;;;;;5093327;28;20031;-78
2021/06/12 11:35:07;;;;;;;13.52;8.20;;;21.60;99.90;;;;;;5093365;28;20726;-79
2021/06/12 11:37:33;;;;;;;17.08;8.60;;;21.70;99.90;;;;;;5092223;28;20063;-79
2021/06/12 11:40:04;;;;;;;18.17;7.95;;;21.80;99.90;;;;;;5092228;28;20100;-79
2021/06/12 11:42:44;;;;;;;9.48;7.22;;;21.80;99.90;;;;;;5093368;28;20091;-78
2021/06/12 11:45:24;;;;;;;8.27;7.47;;;21.80;99.90;;;;;;5092128;28;20020;-79
2021/06/12 11:47:52;;;;;;;6.90;6.10;;;21.70;99.90;;;;;;5092139;28;20023;-79
2021/06/12 11:50:29;;;;;;;10.63;7.47;;;21.30;99.90;;;;;;5092976;28;20028;-80
2021/06/12 11:52:55;;;;;;;11.27;7.15;;;21.10;99.90;;;;;;5092983;28;20104;-79
2021/06/12 11:55:27;;;;;;;8.90;5.40;;;20.80;99.90;;;;;;5092823;28;20020;-82
2021/06/12 11:57:55;;;;;;;11.15;5.50;;;20.40;99.90;;;;;;5092785;28;20020;-80
2021/06/12 12:00:32;;;;;;;11.70;4.22;;;20.20;99.90;;;;;;5092934;28;20043;-83
2021/06/12 12:03:11;;;;;;;8.00;4.53;;;19.80;99.90;;;;;;5093421;28;20032;-91
2021/06/12 12:05:43;;;;;;;7.38;4.45;;;19.70;99.90;;;;;;5093341;28;20575;-83
2021/06/12 12:08:14;;;;;;;8.57;4.78;;;19.60;99.90;;;;;;5093572;28;20020;-79
2021/06/12 12:10:50;;;;;;;8.75;5.15;;;19.50;99.90;;;;;;5093141;28;20040;-84
2021/06/12 12:13:37;;;;;;;6.40;4.20;;;19.60;99.90;;;;;;5097341;28;20024;-78
2021/06/12 12:16:18;;;;;;;5.97;4.28;;;19.50;99.90;;;;;;5100688;28;20118;-82
2021/06/12 12:18:45;;;;;;;5.90;5.10;;;19.60;99.90;;;;;;5101820;28;20020;-82
2021/06/12 12:21:11;;;;;;;7.95;7.13;;;19.80;99.90;;;;;;5100481;28;20115;-83
2021/06/12 12:23:37;;;;;;;6.90;6.20;;;20.00;99.90;;;;;;5100532;28;20105;-86
2021/06/12 12:26:14;;;;;;;11.15;4.80;;;20.20;99.90;;;;;;5100592;28;20023;-86
2021/06/12 12:28:55;;;;;;;7.25;4.93;;;20.40;99.90;;;;;;5100230;28;20028;-84
2021/06/12 12:31:22;;;;;;;7.70;5.97;;;20.50;99.90;;;;;;5100203;28;20035;-83
2021/06/12 12:33:49;;;;;;;9.23;7.40;;;20.80;99.90;;;;;;5100153;28;20097;-85
2021/06/12 12:36:15;;;;;;;8.15;7.43;;;21.10;99.90;;;;;;5100259;28;20027;-86
2021/06/12 12:38:43;;;;;;;8.30;6.93;;;21.40;99.90;;;;;;5100397;28;20042;-87
2021/06/12 12:41:10;;;;;;;6.47;5.88;;;21.80;99.90;;;;;;5100211;28;20125;-86
2021/06/12 12:43:37;;;;;;;8.18;7.15;;;22.00;99.90;;;;;;5100130;28;20111;-84
2021/06/12 12:46:04;;;;;;;9.75;8.23;;;22.20;99.90;;;;;;5100163;28;20024;-85
2021/06/12 12:48:33;;;;;;;9.38;6.90;;;22.50;99.90;;;;;;5100579;28;20047;-84
2021/06/12 12:50:59;;;;;;;8.25;5.50;;;22.40;99.90;;;;;;5100505;28;20223;-85
2021/06/12 12:53:25;;;;;;;9.23;6.10;;;22.50;99.90;;;;;;5100316;28;20020;-84